createdAt,value
2022-09-02T00:03:18.486Z,96722.69
2022-09-02T00:08:11.904Z,96726.94
2022-09-02T00:13:06.017Z,96715.25
2022-09-02T00:17:57.757Z,96704.66
2022-09-02T00:22:50.821Z,96703.00
2022-09-02T00:27:42.721Z,96694.50
2022-09-02T00:32:34.564Z,96708.28
2022-09-02T00:37:27.502Z,96705.06
2022-09-02T00:42:21.876Z,96706.09
2022-09-02T00:47:15.345Z,96711.41
2022-09-02T00:52:15.773Z,96698.22
2022-09-02T00:57:19.247Z,96704.25
2022-09-02T01:02:13.357Z,96706.66
2022-09-02T01:07:07.090Z,96702.88
2022-09-02T01:12:03.021Z,96696.44
2022-09-02T01:16:59.990Z,96709.28
2022-09-02T01:21:57.205Z,96700.44
2022-09-02T01:26:54.191Z,96706.63
2022-09-02T01:31:46.103Z,96709.69
2022-09-02T01:36:40.784Z,96701.13
2022-09-02T01:41:32.500Z,96705.28
2022-09-02T01:46:24.315Z,96698.66
2022-09-02T01:51:20.477Z,96689.25
2022-09-02T01:56:13.409Z,96691.19
2022-09-02T02:01:05.328Z,96682.94
2022-09-02T02:05:57.120Z,96681.59
2022-09-02T02:10:49.974Z,96683.06
2022-09-02T02:15:44.291Z,96680.94
2022-09-02T02:31:17.895Z,96683.09
2022-09-02T02:36:10.337Z,96678.97
2022-09-02T02:41:04.779Z,96671.44
2022-09-02T02:45:56.600Z,96682.41
2022-09-02T02:50:48.645Z,96679.50
2022-09-02T02:55:40.654Z,96674.19
2022-09-02T03:00:33.567Z,96667.25
2022-09-02T03:05:28.246Z,96674.84
2022-09-02T03:10:21.743Z,96671.59
2022-09-02T03:15:17.093Z,96679.03
2022-09-02T04:59:14.655Z,96702.06
2022-09-02T07:52:52.528Z,96690.84
